Time;durP1;ratioP1;P1;durP2;ratioP2;P2;SDS_P1;SDS_P2;PMS_P1;PMS_P2;Temp;Humidity;BMP_temperature;BMP_pressure;BME280_temperature;BME280_humidity;BME280_pressure;Samples;Min_cycle;Max_cycle;Signal;HPM_P1;HPM_P2
2021/10/31 00:01:04;;;;;;;7.10;4.20;;;;;;;11.90;82.26;99967.46;115742;1192;62060;-78
2021/10/31 00:03:33;;;;;;;8.70;3.90;;;;;;;11.87;82.45;99971.17;115779;1177;60011;-78
2021/10/31 00:06:00;;;;;;;7.20;3.80;;;;;;;11.82;82.56;99979.63;115006;1192;76806;-78
2021/10/31 00:08:26;;;;;;;8.30;4.30;;;;;;;11.80;82.70;99984.41;115900;1192;71083;-78
2021/10/31 00:10:53;;;;;;;8.40;3.70;;;;;;;11.78;82.93;99992.42;115293;1191;72623;-78
2021/10/31 00:13:19;;;;;;;7.80;4.00;;;;;;;11.76;83.05;99994.34;115627;1184;59857;-78
2021/10/31 00:15:46;;;;;;;5.50;3.50;;;;;;;11.74;83.04;99994.54;115704;1191;59990;-78
2021/10/31 00:18:12;;;;;;;7.30;4.50;;;;;;;11.73;83.16;99991.17;115720;1192;75116;-78
2021/10/31 00:20:39;;;;;;;7.20;3.90;;;;;;;11.71;83.33;99990.60;115707;1192;71102;-78
2021/10/31 00:23:06;;;;;;;7.70;4.00;;;;;;;11.67;83.52;99998.31;115753;1192;71569;-78
2021/10/31 00:25:32;;;;;;;6.30;4.20;;;;;;;11.65;83.77;99999.04;115690;1192;63000;-78
2021/10/31 00:27:59;;;;;;;8.10;4.60;;;;;;;11.63;83.77;100001.00;115637;1192;59766;-79
2021/10/31 00:30:25;;;;;;;7.20;4.10;;;;;;;11.61;83.84;100005.45;115163;1192;76385;-79
2021/10/31 00:32:52;;;;;;;9.50;4.90;;;;;;;11.60;83.87;100005.48;114990;1192;71682;-78
2021/10/31 00:35:18;;;;;;;8.90;4.70;;;;;;;11.59;83.92;100004.48;115523;1192;72523;-78
2021/10/31 00:37:45;;;;;;;7.00;3.90;;;;;;;11.58;83.81;100004.58;115584;1192;61005;-78
2021/10/31 00:40:12;;;;;;;8.30;4.30;;;;;;;11.58;83.94;100005.48;115477;1192;61063;-78
2021/10/31 00:42:40;;;;;;;6.70;3.60;;;;;;;11.58;83.95;100009.02;115836;1192;76482;-78
2021/10/31 00:45:08;;;;;;;8.40;3.90;;;;;;;11.59;83.91;100014.92;115374;1192;72355;-78
2021/10/31 00:47:34;;;;;;;7.80;5.20;;;;;;;11.60;83.95;100023.63;115341;1192;73623;-78
2021/10/31 00:50:01;;;;;;;7.30;4.20;;;;;;;11.61;84.26;100030.79;115255;1186;62255;-79
2021/10/31 00:52:30;;;;;;;7.60;4.60;;;;;;;11.64;84.11;100029.94;114937;1192;60209;-77
2021/10/31 00:54:58;;;;;;;7.30;4.70;;;;;;;11.67;84.27;100031.52;115333;1192;76429;-79
2021/10/31 00:57:25;;;;;;;9.70;5.70;;;;;;;11.70;84.16;100030.37;115714;1192;71245;-79
2021/10/31 00:59:52;;;;;;;8.30;5.30;;;;;;;11.73;83.89;100031.89;115751;1192;73661;-79
2021/10/31 01:02:19;;;;;;;9.80;5.00;;;;;;;11.77;83.90;100028.77;115716;1192;62431;-79
2021/10/31 01:04:52;;;;;;;7.70;4.60;;;;;;;11.80;83.83;100029.09;115772;1192;60198;-79
2021/10/31 01:07:45;;;;;;;6.70;4.50;;;;;;;11.81;83.81;100030.98;115700;1192;75164;-78
2021/10/31 01:10:27;;;;;;;9.10;4.70;;;;;;;11.84;83.86;100031.04;115729;1192;72139;-78
2021/10/31 01:13:41;;;;;;;8.50;5.50;;;;;;;11.87;83.56;100035.05;115751;1192;73911;-78
2021/10/31 01:16:33;;;;;;;8.50;4.80;;;;;;;11.91;83.64;100043.14;115690;1192;61624;-78
2021/10/31 01:19:15;;;;;;;9.00;4.80;;;;;;;11.93;83.51;100041.28;114897;1192;60756;-77
2021/10/31 01:21:55;;;;;;;7.60;4.80;;;;;;;11.95;83.58;100045.98;115072;1192;75549;-79
2021/10/31 01:24:24;;;;;;;8.60;4.60;;;;;;;11.97;83.38;100040.60;115715;1192;72374;-79
2021/10/31 01:27:12;;;;;;;9.50;6.20;;;;;;;11.97;83.40;100039.65;115733;1192;72353;-79
2021/10/31 01:29:53;;;;;;;9.20;5.60;;;;;;;11.98;83.32;100034.41;115731;1192;60301;-79
2021/10/31 01:32:32;;;;;;;11.40;5.60;;;;;;;11.99;83.36;100029.61;115687;1192;60448;-78
2021/10/31 01:35:22;;;;;;;7.30;5.20;;;;;;;12.00;83.17;100026.57;115689;1192;76708;-78
2021/10/31 01:38:03;;;;;;;9.30;5.00;;;;;;;12.00;83.28;100036.84;115683;1192;70992;-78
2021/10/31 01:40:50;;;;;;;10.30;5.50;;;;;;;12.00;83.49;100041.41;115390;1192;72589;-77
2021/10/31 01:43:55;;;;;;;9.70;5.10;;;;;;;12.00;83.47;100040.29;114582;1192;61652;-79
2021/10/31 01:46:35;;;;;;;11.20;5.30;;;;;;;12.01;83.49;100044.25;115672;1192;60441;-79
2021/10/31 01:49:02;;;;;;;9.60;5.60;;;;;;;12.02;83.54;100045.02;115667;1192;75369;-78
2021/10/31 01:51:55;;;;;;;9.40;4.10;;;;;;;12.03;83.45;100040.70;115645;1192;59796;-78
2021/10/31 01:54:31;;;;;;;9.90;6.00;;;;;;;12.04;83.47;100033.95;115762;1191;72551;-79
2021/10/31 01:57:01;;;;;;;9.30;5.00;;;;;;;12.05;83.42;100039.36;115546;1192;61230;-78
2021/10/31 01:59:32;;;;;;;7.40;4.60;;;;;;;12.06;83.45;100041.72;115724;1192;61228;-79
2021/10/31 02:02:03;;;;;;;8.70;5.20;;;;;;;12.06;83.50;100043.36;115841;1191;75359;-79
2021/10/31 02:04:32;;;;;;;8.80;4.80;;;;;;;12.05;83.66;100048.88;115844;1192;71044;-79
2021/10/31 02:07:01;;;;;;;8.40;4.90;;;;;;;12.05;83.65;100052.48;114729;1192;73153;-78
2021/10/31 02:09:32;;;;;;;8.10;5.20;;;;;;;12.04;83.68;100054.89;115882;1192;62019;-78
2021/10/31 02:12:01;;;;;;;8.30;5.50;;;;;;;12.04;83.82;100059.14;115701;1192;61673;-78
2021/10/31 02:14:29;;;;;;;7.70;5.10;;;;;;;12.04;83.74;100060.70;115650;1192;76490;-78
2021/10/31 02:16:58;;;;;;;8.60;5.10;;;;;;;12.06;83.80;100060.02;115872;1192;70963;-78
2021/10/31 02:19:28;;;;;;;10.70;5.80;;;;;;;12.06;83.79;100058.16;115856;1192;73786;-78
2021/10/31 02:22:01;;;;;;;11.10;5.80;;;;;;;12.07;83.79;100060.38;115739;1191;61853;-79
2021/10/31 02:24:28;;;;;;;9.00;5.70;;;;;;;12.07;83.80;100059.98;115650;1192;60265;-79
2021/10/31 02:26:56;;;;;;;8.10;5.30;;;;;;;12.06;83.81;100057.52;115438;1192;76206;-79
2021/10/31 02:29:22;;;;;;;9.80;5.40;;;;;;;12.03;83.82;100060.24;114829;1192;71984;-79
2021/10/31 02:31:49;;;;;;;11.40;6.20;;;;;;;12.00;84.03;100058.96;115693;1191;73570;-79
2021/10/31 02:34:15;;;;;;;9.70;6.40;;;;;;;11.96;84.36;100059.27;115655;1192;62042;-77
2021/10/31 02:36:43;;;;;;;9.00;4.90;;;;;;;11.93;83.99;100058.04;115653;1191;59799;-78
2021/10/31 02:39:09;;;;;;;10.00;5.70;;;;;;;11.90;84.29;100062.05;115686;1192;76399;-78
2021/10/31 02:41:36;;;;;;;9.40;5.70;;;;;;;11.88;84.45;100066.73;115660;1192;71155;-78
2021/10/31 02:44:04;;;;;;;7.30;4.40;;;;;;;11.85;84.66;100070.24;115669;1191;72524;-77
2021/10/31 02:46:34;;;;;;;9.60;5.90;;;;;;;11.83;84.67;100075.09;115538;1192;61878;-79
2021/10/31 02:49:05;;;;;;;8.50;5.20;;;;;;;11.82;84.96;100081.77;114803;1192;61725;-79
2021/10/31 02:51:52;;;;;;;12.10;6.50;;;;;;;11.81;85.01;100078.15;115707;1192;75555;-78
2021/10/31 02:54:29;;;;;;;10.90;5.10;;;;;;;11.80;85.23;100075.83;115734;1191;70963;-78
2021/10/31 02:57:31;;;;;;;9.80;5.80;;;;;;;11.80;85.35;100073.87;115664;1192;73790;-78
2021/10/31 03:00:04;;;;;;;9.30;5.60;;;;;;;11.79;85.41;100079.80;115647;1191;63093;-79
2021/10/31 03:02:32;;;;;;;8.10;5.00;;;;;;;11.79;85.42;100077.23;115648;1192;60073;-79
2021/10/31 03:05:00;;;;;;;8.60;4.90;;;;;;;11.77;85.39;100075.98;115810;1191;75450;-79
2021/10/31 03:07:27;;;;;;;9.50;5.20;;;;;;;11.74;85.32;100073.96;115010;1192;71984;-79
2021/10/31 03:09:54;;;;;;;8.30;5.20;;;;;;;11.70;85.54;100073.98;115601;1192;73760;-79
2021/10/31 03:12:21;;;;;;;8.60;5.10;;;;;;;11.65;85.43;100069.63;115663;1191;62205;-80
2021/10/31 03:14:47;;;;;;;8.80;5.80;;;;;;;11.60;85.88;100070.83;115701;1192;60255;-80
2021/10/31 03:17:14;;;;;;;8.30;5.50;;;;;;;11.55;86.14;100077.88;115681;1191;76081;-80
2021/10/31 03:19:42;;;;;;;8.90;5.70;;;;;;;11.50;86.62;100078.18;115732;1191;71983;-80
2021/10/31 03:22:09;;;;;;;9.30;5.20;;;;;;;11.46;86.94;100080.73;115687;1192;72188;-79
2021/10/31 03:24:36;;;;;;;10.70;6.00;;;;;;;11.43;86.99;100082.50;115693;1192;62993;-79
2021/10/31 03:27:03;;;;;;;9.50;5.20;;;;;;;11.40;87.09;100084.61;115725;1191;61404;-80
2021/10/31 03:29:30;;;;;;;11.20;6.40;;;;;;;11.36;87.40;100082.64;114866;1191;76603;-78
2021/10/31 03:31:56;;;;;;;7.90;5.10;;;;;;;11.35;87.74;100088.80;114934;1192;72611;-78
2021/10/31 03:34:23;;;;;;;8.30;5.20;;;;;;;11.34;87.80;100097.25;115631;1191;72564;-79
2021/10/31 03:36:50;;;;;;;8.80;5.40;;;;;;;11.33;87.78;100103.40;115628;1192;59825;-78
2021/10/31 03:39:17;;;;;;;9.40;5.90;;;;;;;11.33;88.06;100108.92;115674;1192;59886;-78
2021/10/31 03:41:45;;;;;;;13.70;6.10;;;;;;;11.34;87.98;100118.04;115710;1191;75396;-78
2021/10/31 03:44:18;;;;;;;10.50;6.60;;;;;;;11.35;88.18;100119.80;115682;1191;72088;-78
2021/10/31 03:46:45;;;;;;;10.90;5.90;;;;;;;11.37;88.17;100122.43;115754;1192;73929;-78
2021/10/31 03:49:13;;;;;;;9.50;6.30;;;;;;;11.37;87.94;100111.70;115182;1192;61989;-79
2021/10/31 03:51:39;;;;;;;8.90;5.50;;;;;;;11.41;87.92;100117.15;114680;1191;60625;-78
2021/10/31 03:54:06;;;;;;;8.70;5.30;;;;;;;11.42;87.59;100123.16;115555;1191;60464;-79
2021/10/31 03:56:32;;;;;;;8.90;5.60;;;;;;;11.44;87.66;100122.59;115667;1192;72047;-79
2021/10/31 03:58:59;;;;;;;10.60;6.20;;;;;;;11.45;87.62;100123.52;115634;1192;59751;-78
2021/10/31 04:01:27;;;;;;;8.50;5.20;;;;;;;11.47;87.79;100124.90;115681;1192;61741;-78
2021/10/31 04:03:54;;;;;;;11.00;6.50;;;;;;;11.48;87.43;100125.94;115775;1191;61764;-79
2021/10/31 04:06:21;;;;;;;7.90;4.50;;;;;;;11.47;87.33;100125.02;115607;1191;74688;-79
2021/10/31 04:08:49;;;;;;;10.30;6.40;;;;;;;11.46;87.49;100124.08;115706;1191;69826;-78
2021/10/31 04:11:15;;;;;;;11.90;6.30;;;;;;;11.47;87.63;100132.38;114894;1192;73794;-78
2021/10/31 04:13:42;;;;;;;9.40;6.10;;;;;;;11.47;87.81;100138.59;115021;1192;62209;-78
2021/10/31 04:16:08;;;;;;;9.80;6.00;;;;;;;11.47;87.71;100141.73;115701;1191;59875;-78
2021/10/31 04:18:35;;;;;;;9.40;6.00;;;;;;;11.46;87.73;100138.98;115689;1192;60210;-78
2021/10/31 04:21:02;;;;;;;14.00;7.40;;;;;;;11.46;88.00;100138.71;115710;1191;59782;-77
2021/10/31 04:23:30;;;;;;;9.50;6.40;;;;;;;11.44;88.14;100139.20;115677;1192;72454;-77
2021/10/31 04:25:57;;;;;;;11.80;6.50;;;;;;;11.42;88.31;100134.44;115816;1192;62339;-78
2021/10/31 04:28:24;;;;;;;10.30;6.40;;;;;;;11.39;88.49;100128.61;115794;1192;59934;-78
2021/10/31 04:30:51;;;;;;;10.10;6.00;;;;;;;11.38;88.31;100123.22;115646;1192;76620;-79
2021/10/31 04:33:17;;;;;;;11.00;6.50;;;;;;;11.34;88.48;100133.77;116019;1192;71099;-79
2021/10/31 04:35:44;;;;;;;11.10;7.50;;;;;;;11.32;88.54;100140.61;115766;1184;72524;-78
2021/10/31 04:38:23;;;;;;;10.60;6.80;;;;;;;11.28;88.87;100144.02;115773;1192;60041;-79
2021/10/31 04:40:50;;;;;;;11.20;6.50;;;;;;;11.26;88.80;100158.66;115753;1192;60972;-78
2021/10/31 04:43:18;;;;;;;8.20;5.40;;;;;;;11.24;89.17;100161.55;115716;1192;75434;-78
2021/10/31 04:45:45;;;;;;;10.50;6.10;;;;;;;11.23;89.32;100158.48;115763;1192;70982;-78
2021/10/31 04:48:12;;;;;;;10.70;6.70;;;;;;;11.22;89.19;100158.08;115699;1192;73600;-78
2021/10/31 04:50:40;;;;;;;9.60;6.50;;;;;;;11.22;89.05;100155.27;115785;1192;61521;-78
2021/10/31 04:53:08;;;;;;;9.10;5.90;;;;;;;11.21;88.92;100151.45;115767;1192;60262;-78
2021/10/31 04:55:37;;;;;;;10.60;6.80;;;;;;;11.20;88.97;100141.11;115790;1191;76385;-78
2021/10/31 04:58:04;;;;;;;10.80;7.00;;;;;;;11.18;88.71;100129.12;115107;1192;72189;-76
2021/10/31 05:00:31;;;;;;;9.50;6.30;;;;;;;11.13;88.62;100134.92;115358;1192;73924;-78
2021/10/31 05:02:59;;;;;;;9.40;6.30;;;;;;;11.07;88.49;100132.91;115666;1192;60879;-78
2021/10/31 05:05:25;;;;;;;11.00;6.70;;;;;;;10.99;88.66;100127.63;115682;1192;61751;-78
2021/10/31 05:07:55;;;;;;;11.40;6.70;;;;;;;10.93;88.85;100129.61;115711;1192;60275;-77
2021/10/31 05:10:23;;;;;;;12.50;6.70;;;;;;;10.85;88.76;100129.21;115788;1192;72062;-77
2021/10/31 05:12:49;;;;;;;11.90;7.00;;;;;;;10.74;88.54;100131.36;115738;1192;72608;-77
2021/10/31 05:15:16;;;;;;;10.90;6.60;;;;;;;10.63;88.80;100131.86;115733;1191;60585;-77
2021/10/31 05:17:43;;;;;;;13.50;7.50;;;;;;;10.53;89.37;100135.11;115675;1192;61280;-78
2021/10/31 05:20:11;;;;;;;12.10;7.60;;;;;;;10.46;89.62;100133.34;115738;1192;76741;-78
2021/10/31 05:22:38;;;;;;;13.30;8.30;;;;;;;10.38;89.97;100138.42;115378;1192;72200;-78
2021/10/31 05:25:06;;;;;;;13.90;7.40;;;;;;;10.31;90.35;100136.55;114952;1192;72775;-77
2021/10/31 05:27:34;;;;;;;10.80;7.20;;;;;;;10.24;90.38;100131.74;115692;1191;62018;-78
2021/10/31 05:30:01;;;;;;;15.70;8.40;;;;;;;10.17;90.67;100125.80;115795;1191;60244;-79
2021/10/31 05:32:33;;;;;;;12.30;7.50;;;;;;;10.13;91.17;100121.17;115793;1191;76460;-79
2021/10/31 05:35:00;;;;;;;14.80;7.70;;;;;;;10.12;91.39;100120.85;115701;1192;71196;-79
2021/10/31 05:37:40;;;;;;;13.70;7.60;;;;;;;10.09;91.40;100122.73;115717;1192;73688;-80
2021/10/31 05:40:09;;;;;;;14.40;8.50;;;;;;;10.08;91.28;100124.54;115831;1191;60708;-80
2021/10/31 05:42:36;;;;;;;13.50;7.80;;;;;;;10.04;91.11;100122.54;115839;1191;60313;-80
2021/10/31 05:45:03;;;;;;;12.50;7.80;;;;;;;9.99;91.20;100118.65;115725;1192;75459;-80
2021/10/31 05:47:30;;;;;;;14.80;7.30;;;;;;;9.95;91.26;100114.92;115684;1192;71565;-80
2021/10/31 05:49:57;;;;;;;13.80;8.20;;;;;;;9.86;90.81;100119.67;114920;1192;74910;-79
2021/10/31 05:52:24;;;;;;;13.50;7.10;;;;;;;9.79;90.70;100120.60;115305;1192;62031;-79
2021/10/31 05:54:50;;;;;;;13.00;7.80;;;;;;;9.72;91.11;100126.86;115735;1191;60374;-79
2021/10/31 05:57:17;;;;;;;10.30;7.10;;;;;;;9.66;91.47;100127.07;115665;1192;75580;-80
2021/10/31 05:59:43;;;;;;;10.80;6.70;;;;;;;9.60;91.61;100124.25;115686;1192;59773;-80
2021/10/31 06:02:09;;;;;;;10.00;6.60;;;;;;;9.54;92.27;100130.93;115688;1192;59898;-79
2021/10/31 06:04:39;;;;;;;13.80;7.80;;;;;;;9.51;92.68;100134.31;115687;1192;61872;-79
2021/10/31 06:07:06;;;;;;;15.10;8.40;;;;;;;9.49;92.90;100141.58;115728;1192;61186;-80
2021/10/31 06:09:34;;;;;;;15.40;7.60;;;;;;;9.49;93.25;100141.28;115729;1191;76607;-80
2021/10/31 06:12:03;;;;;;;12.00;7.90;;;;;;;9.50;94.22;100146.44;115088;1192;70895;-79
2021/10/31 06:14:32;;;;;;;13.00;8.00;;;;;;;9.55;94.42;100151.34;115607;1192;72585;-79
2021/10/31 06:16:58;;;;;;;11.60;6.90;;;;;;;9.58;94.77;100148.66;115661;1192;62237;-79
2021/10/31 06:19:25;;;;;;;12.00;7.70;;;;;;;9.60;94.67;100148.77;115630;1192;60292;-79
2021/10/31 06:21:51;;;;;;;11.60;7.30;;;;;;;9.62;94.98;100150.13;115669;1191;74612;-72
2021/10/31 06:24:18;;;;;;;12.30;7.40;;;;;;;9.67;95.18;100149.33;115688;1188;60357;-72
2021/10/31 06:26:44;;;;;;;13.40;7.80;;;;;;;9.71;95.06;100143.23;115612;1192;59955;-72
2021/10/31 06:29:13;;;;;;;14.20;8.40;;;;;;;9.76;95.84;100141.39;115650;1191;59917;-72
2021/10/31 06:31:40;;;;;;;13.50;8.70;;;;;;;9.81;95.41;100144.51;115608;1192;61271;-72
2021/10/31 06:34:10;;;;;;;13.30;7.90;;;;;;;9.85;94.99;100147.77;115032;1192;73851;-73
2021/10/31 06:36:36;;;;;;;11.80;7.30;;;;;;;9.91;95.52;100146.15;114500;1192;71038;-72
2021/10/31 06:39:03;;;;;;;13.50;7.60;;;;;;;9.96;95.14;100151.59;115550;1192;73629;-72
2021/10/31 06:41:31;;;;;;;13.60;7.20;;;;;;;9.99;94.71;100151.52;115704;1192;61860;-72
2021/10/31 06:43:58;;;;;;;13.40;7.90;;;;;;;10.00;94.29;100155.35;115692;1191;60230;-72
2021/10/31 06:46:25;;;;;;;12.70;7.30;;;;;;;10.01;94.18;100158.92;115619;1191;60019;-72
2021/10/31 06:48:53;;;;;;;12.20;7.50;;;;;;;10.03;94.27;100161.02;115744;1191;71053;-73
2021/10/31 06:51:20;;;;;;;11.90;7.70;;;;;;;10.05;94.41;100162.37;115727;1192;71687;-73
2021/10/31 06:53:48;;;;;;;12.70;7.50;;;;;;;10.10;94.76;100158.21;115864;1192;62768;-73
2021/10/31 06:56:14;;;;;;;12.90;7.90;;;;;;;10.17;94.62;100154.55;115893;1191;60092;-73
2021/10/31 06:58:41;;;;;;;12.80;8.10;;;;;;;10.24;94.77;100153.19;115866;1192;75651;-73
2021/10/31 07:01:08;;;;;;;14.20;8.00;;;;;;;10.34;95.12;100148.48;115691;1192;71019;-72
2021/10/31 07:03:35;;;;;;;13.00;8.10;;;;;;;10.42;94.84;100149.89;115569;1192;73896;-73
2021/10/31 07:06:02;;;;;;;12.80;8.50;;;;;;;10.50;94.90;100151.96;115676;1191;61900;-73
2021/10/31 07:08:30;;;;;;;12.40;7.80;;;;;;;10.59;94.96;100158.59;115732;1192;61255;-73
2021/10/31 07:10:57;;;;;;;13.30;8.90;;;;;;;10.68;94.66;100154.16;115891;1191;76330;-73
2021/10/31 07:13:24;;;;;;;18.50;10.30;;;;;;;10.78;94.83;100154.86;114872;1192;71071;-73
2021/10/31 07:15:50;;;;;;;14.00;9.40;;;;;;;10.88;94.80;100153.86;115660;1191;72507;-73
2021/10/31 07:18:17;;;;;;;11.60;7.80;;;;;;;10.98;94.56;100153.61;115644;1192;59769;-73
2021/10/31 07:20:43;;;;;;;14.20;8.10;;;;;;;11.09;94.25;100151.30;115609;1192;59831;-72
2021/10/31 07:23:10;;;;;;;10.50;6.50;;;;;;;11.17;94.00;100147.91;115738;1192;59499;-73
2021/10/31 07:25:36;;;;;;;13.00;8.80;;;;;;;11.25;93.67;100144.29;115717;1192;60130;-73
2021/10/31 07:28:03;;;;;;;13.60;8.70;;;;;;;11.33;93.26;100134.79;115659;1192;59759;-72
2021/10/31 07:30:29;;;;;;;12.80;8.20;;;;;;;11.38;92.98;100138.86;115716;1192;59602;-72
2021/10/31 07:32:58;;;;;;;11.50;7.30;;;;;;;11.44;92.76;100139.52;114916;1192;61743;-72
2021/10/31 07:35:26;;;;;;;14.00;9.00;;;;;;;11.48;92.59;100140.69;115665;1192;76764;-72
2021/10/31 07:37:53;;;;;;;12.80;8.50;;;;;;;11.50;92.34;100145.19;115724;1192;72264;-73
2021/10/31 07:40:22;;;;;;;16.20;8.40;;;;;;;11.54;92.19;100145.46;115732;1192;73557;-73
2021/10/31 07:42:54;;;;;;;13.30;8.10;;;;;;;11.55;91.84;100148.61;115819;1192;62168;-73
2021/10/31 07:45:36;;;;;;;12.70;7.80;;;;;;;11.54;91.75;100150.54;115780;1192;60051;-73
2021/10/31 07:48:04;;;;;;;14.10;7.70;;;;;;;11.53;91.50;100158.24;115671;1192;75344;-73
2021/10/31 07:50:34;;;;;;;13.90;9.00;;;;;;;11.54;91.62;100160.59;114727;1192;70965;-74
2021/10/31 07:53:03;;;;;;;10.70;7.80;;;;;;;11.54;91.47;100160.27;115648;1192;72240;-73
2021/10/31 07:55:32;;;;;;;15.80;8.80;;;;;;;11.51;91.44;100155.34;115903;1192;61956;-74
2021/10/31 07:58:00;;;;;;;9.10;5.90;;;;;;;11.50;91.35;100151.98;115742;1192;60424;-73
2021/10/31 08:00:28;;;;;;;12.10;7.40;;;;;;;11.51;91.59;100154.64;115919;1192;74409;-73
2021/10/31 08:02:55;;;;;;;14.30;9.20;;;;;;;11.53;91.48;100154.08;115755;1192;70958;-72
2021/10/31 08:05:23;;;;;;;10.60;7.10;;;;;;;11.56;91.70;100148.30;115748;1192;72619;-72
2021/10/31 08:07:51;;;;;;;13.10;8.40;;;;;;;11.60;91.39;100142.81;115846;1192;61940;-73
2021/10/31 08:10:19;;;;;;;14.20;8.50;;;;;;;11.65;91.50;100143.08;115803;1192;60185;-72
2021/10/31 08:12:45;;;;;;;9.20;6.30;;;;;;;11.73;91.40;100141.24;115774;1192;75424;-72
2021/10/31 08:15:13;;;;;;;11.40;6.60;;;;;;;11.82;91.28;100140.92;115744;1192;71096;-72
2021/10/31 08:17:39;;;;;;;14.20;8.10;;;;;;;11.93;91.02;100140.80;115900;1192;73149;-72
2021/10/31 08:20:07;;;;;;;11.00;6.40;;;;;;;12.04;90.78;100132.52;115699;1192;59736;-72
2021/10/31 08:22:33;;;;;;;11.90;7.50;;;;;;;12.13;90.53;100118.30;115954;1192;61243;-72
2021/10/31 08:25:00;;;;;;;7.50;4.50;;;;;;;12.24;90.41;100110.61;115908;1192;75371;-71
2021/10/31 08:27:28;;;;;;;11.70;7.80;;;;;;;12.37;90.27;100115.16;114752;1193;72639;-72
2021/10/31 08:29:54;;;;;;;10.80;7.40;;;;;;;12.50;90.04;100112.73;115506;1192;73562;-72
2021/10/31 08:32:23;;;;;;;10.50;6.30;;;;;;;12.65;89.82;100103.25;115644;1192;60609;-72
2021/10/31 08:34:50;;;;;;;11.90;7.90;;;;;;;12.79;88.91;100097.52;115566;1192;60461;-73
2021/10/31 08:37:16;;;;;;;8.30;6.30;;;;;;;12.91;88.38;100097.00;115626;1192;60749;-72
2021/10/31 08:39:43;;;;;;;9.00;6.40;;;;;;;13.03;88.16;100095.73;115669;1192;60166;-72
2021/10/31 08:42:09;;;;;;;15.80;6.90;;;;;;;13.16;87.69;100095.65;115576;1192;72342;-72
2021/10/31 08:44:37;;;;;;;10.50;7.30;;;;;;;13.28;87.00;100098.05;115639;1192;60445;-72
2021/10/31 08:47:05;;;;;;;12.20;7.30;;;;;;;13.40;86.21;100100.30;114726;1192;61784;-72
2021/10/31 08:49:32;;;;;;;10.60;6.20;;;;;;;13.51;85.61;100097.91;115418;1192;75356;-73
2021/10/31 08:52:04;;;;;;;13.80;6.70;;;;;;;13.60;84.88;100086.97;115680;1192;72356;-72
2021/10/31 08:54:34;;;;;;;10.10;7.00;;;;;;;13.70;84.63;100084.35;115828;1192;72626;-73
2021/10/31 08:57:01;;;;;;;8.40;5.80;;;;;;;13.83;84.25;100083.17;115814;1192;61636;-73
2021/10/31 08:59:27;;;;;;;11.00;5.80;;;;;;;13.94;83.35;100080.01;115816;1192;60949;-72
2021/10/31 09:01:54;;;;;;;8.30;5.60;;;;;;;14.06;83.32;100081.42;115703;1192;76443;-73
2021/10/31 09:10:32;;;;;;;;;;;;;;;;;;;;;
2021/10/31 09:13:28;;;;;;;9.40;5.80;;;;;;;14.52;81.01;100069.98;113895;1194;61857;-79
2021/10/31 09:16:20;;;;;;;7.50;4.20;;;;;;;14.58;80.39;100069.14;114014;1195;75697;-82
2021/10/31 09:19:06;;;;;;;7.70;3.60;;;;;;;14.59;79.80;100069.18;113544;1195;71160;-83
2021/10/31 09:21:53;;;;;;;7.60;4.40;;;;;;;14.61;79.42;100061.86;113733;1195;72584;-84
2021/10/31 09:24:43;;;;;;;7.10;3.80;;;;;;;14.63;79.71;100054.98;113682;1195;61828;-83
2021/10/31 09:27:19;;;;;;;6.10;4.00;;;;;;;14.68;79.41;100048.27;113364;1195;60219;-81
2021/10/31 09:30:14;;;;;;;5.60;4.00;;;;;;;14.72;79.29;100036.75;113638;1195;75421;-81
2021/10/31 09:32:47;;;;;;;5.00;2.90;;;;;;;14.82;79.53;100029.28;113577;1195;71802;-82
2021/10/31 09:35:20;;;;;;;5.50;3.50;;;;;;;14.92;79.05;100035.31;113737;1195;74020;-82
2021/10/31 09:38:13;;;;;;;;;;;;;;;;;;;;;
2021/10/31 09:40:41;;;;;;;4.10;2.90;;;;;;;15.09;77.52;100028.82;113409;1197;60196;-82
2021/10/31 09:43:22;;;;;;;3.30;2.60;;;;;;;15.19;77.25;100026.55;113653;1197;75325;-81
2021/10/31 09:46:08;;;;;;;4.00;2.90;;;;;;;15.31;76.69;100023.05;113643;1197;71245;-83
2021/10/31 09:52:03;;;;;;;6.10;2.70;;;;;;;15.56;76.38;100013.89;114315;1180;61253;-78
2021/10/31 09:54:31;;;;;;;4.60;2.90;;;;;;;15.70;75.70;100016.77;113084;1195;61976;-77
2021/10/31 09:56:59;;;;;;;5.10;3.20;;;;;;;15.77;74.97;100021.45;113165;1194;76247;-77
2021/10/31 09:59:29;;;;;;;5.20;3.00;;;;;;;15.76;74.52;100024.33;113242;1190;71498;-79
2021/10/31 10:04:32;;;;;;;3.30;2.50;;;;;;;15.76;74.66;100023.73;112694;1195;61783;-78
2021/10/31 10:07:02;;;;;;;3.90;2.40;;;;;;;15.76;74.37;100026.33;113139;1196;61883;-77
2021/10/31 10:09:30;;;;;;;6.60;2.30;;;;;;;15.77;74.60;100026.31;112529;1195;75399;-78
2021/10/31 10:12:11;;;;;;;3.10;1.90;;;;;;;15.76;74.48;100029.91;113401;1195;72068;-77
2021/10/31 10:14:37;;;;;;;3.50;2.20;;;;;;;15.72;74.19;100028.14;112626;1196;72666;-77
2021/10/31 10:17:11;;;;;;;2.80;2.10;;;;;;;15.74;74.81;100025.28;112868;1196;61890;-75
2021/10/31 10:19:52;;;;;;;2.80;1.30;;;;;;;15.76;74.51;100022.42;115546;1195;60211;-77
2021/10/31 10:22:24;;;;;;;3.80;2.00;;;;;;;15.72;72.95;100022.58;112908;1195;76425;-80
2021/10/31 10:24:56;;;;;;;3.70;1.30;;;;;;;15.74;73.29;100018.53;112513;1195;72112;-76
2021/10/31 10:27:25;;;;;;;3.70;1.70;;;;;;;15.79;73.09;100025.50;112797;1184;125860;-76
2021/10/31 10:29:52;;;;;;;2.60;1.60;;;;;;;15.86;73.61;100022.48;112484;1196;61873;-75
2021/10/31 10:32:22;;;;;;;3.30;2.10;;;;;;;15.98;73.52;100016.82;112467;1195;62478;-76
2021/10/31 10:34:54;;;;;;;2.10;1.60;;;;;;;16.12;72.71;100015.47;115621;1194;76412;-76
2021/10/31 10:38:18;;;;;;;2.90;1.80;;;;;;;16.24;72.59;100019.48;114276;1174;127869;-82
2021/10/31 10:41:08;;;;;;;;;;;;;;;;;;;;;
2021/10/31 10:43:38;;;;;;;2.90;2.00;;;;;;;16.54;71.31;100010.21;113545;1195;61751;-80
2021/10/31 10:46:25;;;;;;;3.00;1.60;;;;;;;16.48;71.44;100011.09;113648;1194;61234;-81
2021/10/31 10:49:20;;;;;;;;;;;;;;;;;;;;;
2021/10/31 10:52:41;;;;;;;3.80;2.00;;;;;;;16.42;72.36;100011.36;113896;1193;70723;-85
2021/10/31 10:55:30;;;;;;;3.50;2.10;;;;;;;16.31;72.50;100008.52;114173;1195;72365;-81
2021/10/31 10:58:21;;;;;;;2.50;1.50;;;;;;;16.27;72.77;100005.52;114763;1193;61973;-83
2021/10/31 11:00:49;;;;;;;2.40;1.60;;;;;;;16.25;73.09;100001.48;114116;1195;61792;-82
2021/10/31 11:03:37;;;;;;;2.50;1.70;;;;;;;16.23;73.12;99994.30;114125;1194;75382;-81
2021/10/31 11:06:14;;;;;;;3.30;1.90;;;;;;;16.22;73.11;99983.36;114110;1195;72031;-81
2021/10/31 11:08:49;;;;;;;2.20;1.50;;;;;;;16.27;73.20;99967.73;115337;1194;73094;-80
2021/10/31 11:11:43;;;;;;;;;;;;;;;;;;;;;
2021/10/31 11:15:07;;;;;;;3.90;2.10;;;;;;;16.44;72.95;99946.95;114169;1195;61731;-83
2021/10/31 11:17:45;;;;;;;3.90;2.20;;;;;;;16.49;72.73;99942.84;113916;1195;76185;-81
2021/10/31 11:20:20;;;;;;;2.30;1.10;;;;;;;16.59;72.71;99937.50;113936;1194;71251;-81
2021/10/31 11:23:01;;;;;;;;;;;;;;;;;;;;;
2021/10/31 11:25:43;;;;;;;3.10;1.80;;;;;;;16.56;72.03;99934.27;113901;1195;61732;-85
2021/10/31 11:28:15;;;;;;;3.90;1.90;;;;;;;16.50;72.09;99924.80;114571;1195;61775;-80
2021/10/31 11:31:20;;;;;;;3.40;1.90;;;;;;;16.48;72.31;99925.42;113397;1194;74118;-83
2021/10/31 11:34:47;;;;;;;6.70;2.80;;;;;;;16.48;72.62;99919.52;114100;1194;71525;-82
2021/10/31 11:37:31;;;;;;;;;;;;;;;;;;;;;
2021/10/31 11:40:07;;;;;;;3.40;1.70;;;;;;;16.55;72.56;99914.21;113778;1195;61848;-80
2021/10/31 11:43:07;;;;;;;3.00;1.60;;;;;;;16.56;72.18;99913.59;114730;1195;60329;-85
2021/10/31 11:45:40;;;;;;;4.60;2.60;;;;;;;16.65;72.10;99906.09;113908;1195;75575;-83
2021/10/31 11:48:57;;;;;;;7.60;2.50;;;;;;;16.76;71.42;99898.40;114042;1193;72951;-79
2021/10/31 11:51:49;;;;;;;3.60;1.50;;;;;;;16.90;70.97;99899.68;114057;1195;72665;-80
2021/10/31 11:54:28;;;;;;;2.90;1.40;;;;;;;17.05;70.81;99895.88;113968;1195;61969;-83
2021/10/31 11:57:41;;;;;;;3.70;1.50;;;;;;;17.09;70.57;99896.21;115286;1193;59971;-83
2021/10/31 12:00:25;;;;;;;2.40;1.70;;;;;;;17.06;70.43;99889.02;114825;1195;75566;-80
2021/10/31 12:03:09;;;;;;;;;;;;;;;;;;;;;